createdAt,value
2023-04-08T00:01:02.050Z,8.80
2023-04-08T00:03:31.441Z,7.50
2023-04-08T00:06:01.123Z,6.40
2023-04-08T00:08:31.320Z,6.10
2023-04-08T00:10:59.920Z,7.60
2023-04-08T00:13:31.469Z,7.10
2023-04-08T00:16:00.131Z,9.60
2023-04-08T00:18:29.482Z,8.80
2023-04-08T00:20:57.805Z,6.00
2023-04-08T00:23:26.421Z,6.60
2023-04-08T00:25:54.836Z,5.90
2023-04-08T00:28:30.152Z,5.40
2023-04-08T00:30:58.549Z,6.50
2023-04-08T00:33:27.677Z,5.50
2023-04-08T00:35:56.083Z,6.10
2023-04-08T00:38:24.464Z,6.20
2023-04-08T00:40:53.784Z,5.70
2023-04-08T00:43:23.271Z,6.40
2023-04-08T00:45:52.044Z,8.30
2023-04-08T00:48:20.407Z,5.80
2023-04-08T00:50:48.775Z,5.40
2023-04-08T00:53:36.945Z,5.90
2023-04-08T00:56:05.564Z,5.40
2023-04-08T00:58:34.562Z,5.70
2023-04-08T01:01:07.754Z,5.40
2023-04-08T01:04:01.957Z,7.50
2023-04-08T01:07:18.178Z,6.30
2023-04-08T01:09:52.877Z,6.40
2023-04-08T01:12:29.212Z,5.40
2023-04-08T01:15:01.766Z,5.80
2023-04-08T01:17:31.290Z,5.90
2023-04-08T01:20:01.958Z,5.60
2023-04-08T01:22:55.125Z,5.80
2023-04-08T01:25:26.642Z,5.20
2023-04-08T01:27:57.818Z,5.20
2023-04-08T01:30:27.478Z,4.90
2023-04-08T01:35:51.210Z,5.70
2023-04-08T01:38:21.841Z,5.40
2023-04-08T01:40:49.010Z,5.70
2023-04-08T01:43:16.931Z,6.10
2023-04-08T01:45:44.600Z,6.50
2023-04-08T01:48:13.009Z,5.90
2023-04-08T01:50:44.457Z,6.40
2023-04-08T01:53:13.376Z,5.60
2023-04-08T01:55:41.659Z,6.50
2023-04-08T01:58:08.930Z,6.50
2023-04-08T02:00:37.140Z,6.40
2023-04-08T02:05:34.080Z,6.00
2023-04-08T02:08:00.975Z,8.40
2023-04-08T02:10:33.247Z,7.20
2023-04-08T02:13:01.094Z,7.00
2023-04-08T02:15:33.898Z,6.80
2023-04-08T02:18:16.638Z,7.10
2023-04-08T02:20:52.248Z,6.80
2023-04-08T02:23:32.795Z,6.90
2023-04-08T02:25:59.730Z,6.60
2023-04-08T02:28:27.327Z,8.40
2023-04-08T02:30:55.959Z,7.30
2023-04-08T02:33:23.948Z,7.60
2023-04-08T02:35:55.493Z,7.30
2023-04-08T02:38:29.370Z,8.20
2023-04-08T02:40:56.803Z,7.60
2023-04-08T02:43:31.200Z,10.30
2023-04-08T02:46:03.477Z,11.00
2023-04-08T02:48:31.346Z,9.40
2023-04-08T02:50:58.241Z,8.70
2023-04-08T02:53:25.952Z,7.90
2023-04-08T02:55:52.950Z,8.20
2023-04-08T02:58:20.056Z,8.90
2023-04-08T03:00:48.050Z,7.90
2023-04-08T03:03:16.670Z,8.20
2023-04-08T03:05:43.584Z,7.90
2023-04-08T03:08:10.592Z,9.60
2023-04-08T03:10:37.834Z,7.90
2023-04-08T03:13:05.241Z,8.00
2023-04-08T03:15:32.112Z,9.10
2023-04-08T03:17:59.332Z,8.60
2023-04-08T03:20:26.600Z,8.80
2023-04-08T03:22:54.725Z,8.50
2023-04-08T03:25:21.645Z,8.90
2023-04-08T03:27:48.657Z,8.50
2023-04-08T03:30:15.592Z,8.50
2023-04-08T03:32:43.155Z,8.00
2023-04-08T03:35:10.708Z,7.70
2023-04-08T03:37:37.814Z,8.20
2023-04-08T03:40:05.802Z,7.60
2023-04-08T03:45:00.117Z,8.10
2023-04-08T03:47:27.041Z,7.80
2023-04-08T03:49:55.093Z,8.20
2023-04-08T03:52:22.444Z,7.70
2023-04-08T03:54:49.390Z,7.90
2023-04-08T03:57:16.366Z,8.80
2023-04-08T03:59:43.283Z,8.70
2023-04-08T04:02:10.535Z,8.50
2023-04-08T04:04:38.429Z,8.80
2023-04-08T04:07:05.607Z,7.80
2023-04-08T04:09:32.378Z,7.70
2023-04-08T04:11:59.272Z,8.40
2023-04-08T04:14:27.154Z,7.80
2023-04-08T04:16:54.294Z,7.70
2023-04-08T04:19:21.292Z,9.40
2023-04-08T04:21:50.977Z,7.70
2023-04-08T04:24:17.749Z,8.80
2023-04-08T04:26:44.978Z,9.50
2023-04-08T04:29:11.874Z,8.10
2023-04-08T04:31:40.331Z,10.20
2023-04-08T04:36:35.426Z,8.00
2023-04-08T04:39:02.450Z,9.30
2023-04-08T04:41:29.909Z,8.40
2023-04-08T04:43:56.779Z,8.80
2023-04-08T04:46:23.813Z,9.50
2023-04-08T04:48:51.144Z,8.10
2023-04-08T04:51:18.442Z,9.30
2023-04-08T04:53:46.281Z,8.60
2023-04-08T04:56:13.420Z,9.00
2023-04-08T04:58:41.659Z,8.80
2023-04-08T05:01:08.998Z,10.50
2023-04-08T05:03:36.626Z,8.60
2023-04-08T05:06:05.075Z,8.70
2023-04-08T05:08:32.529Z,9.50
2023-04-08T05:11:01.767Z,9.00
2023-04-08T05:13:38.183Z,9.10
2023-04-08T05:16:06.565Z,11.50
2023-04-08T05:18:33.824Z,11.00
2023-04-08T05:21:04.909Z,9.50
2023-04-08T05:23:34.604Z,9.80
2023-04-08T05:26:02.009Z,10.60
2023-04-08T05:28:28.925Z,11.30
2023-04-08T05:30:56.214Z,11.80
2023-04-08T05:33:23.415Z,11.50
2023-04-08T05:35:52.673Z,12.10
2023-04-08T05:38:21.812Z,11.30
2023-04-08T05:40:49.885Z,10.50
2023-04-08T05:45:44.426Z,12.80
2023-04-08T05:48:11.713Z,11.20
2023-04-08T05:50:38.804Z,12.10
2023-04-08T05:53:05.916Z,14.20
2023-04-08T05:55:33.259Z,12.20
2023-04-08T05:58:00.974Z,13.50
2023-04-08T06:00:28.586Z,15.40
2023-04-08T06:03:17.458Z,16.30
2023-04-08T06:05:46.850Z,15.10
2023-04-08T06:08:14.333Z,15.20
2023-04-08T06:10:49.861Z,14.80
2023-04-08T06:13:19.746Z,14.80
2023-04-08T06:15:48.386Z,15.20
2023-04-08T06:18:20.629Z,15.20
2023-04-08T06:20:47.621Z,15.70
2023-04-08T06:23:14.933Z,17.10
2023-04-08T06:25:42.523Z,17.30
2023-04-08T06:28:09.747Z,14.70
2023-04-08T06:30:38.081Z,18.40
2023-04-08T06:33:07.050Z,14.30
2023-04-08T06:35:34.086Z,14.10
2023-04-08T06:38:01.184Z,14.00
2023-04-08T06:40:28.237Z,13.30
2023-04-08T06:42:55.967Z,13.40
2023-04-08T06:45:33.518Z,11.90
2023-04-08T06:50:27.868Z,10.10
2023-04-08T06:52:55.013Z,10.50
2023-04-08T06:55:21.989Z,10.60
2023-04-08T06:57:53.472Z,12.30
2023-04-08T07:00:20.780Z,10.60
2023-04-08T07:03:07.938Z,10.90
2023-04-08T07:08:03.224Z,11.90
2023-04-08T07:10:31.649Z,11.90
2023-04-08T07:12:59.321Z,11.80
2023-04-08T07:15:26.808Z,9.50
2023-04-08T07:17:59.357Z,9.50
2023-04-08T07:20:26.424Z,9.30
2023-04-08T07:22:57.955Z,9.70
2023-04-08T07:25:25.112Z,9.00
2023-04-08T07:27:52.606Z,10.50
2023-04-08T07:30:20.150Z,7.70
2023-04-08T07:32:47.237Z,9.40
2023-04-08T07:35:23.790Z,8.30
2023-04-08T07:37:52.478Z,8.10
2023-04-08T07:40:19.553Z,10.20
2023-04-08T07:42:47.512Z,7.90
2023-04-08T07:45:14.919Z,7.30
2023-04-08T07:47:42.358Z,6.40
2023-04-08T07:50:10.139Z,10.00
2023-04-08T07:55:05.372Z,8.50
2023-04-08T07:59:59.172Z,6.10
2023-04-08T08:02:26.265Z,8.10
2023-04-08T08:04:53.695Z,7.70
2023-04-08T08:07:20.867Z,5.60
2023-04-08T08:09:47.914Z,6.50
2023-04-08T08:12:14.987Z,7.20
2023-04-08T08:14:44.170Z,5.00
2023-04-08T08:17:12.316Z,7.10
2023-04-08T08:19:39.572Z,7.10
2023-04-08T08:22:11.559Z,7.30
2023-04-08T08:24:38.910Z,9.90
2023-04-08T08:27:06.337Z,6.10
2023-04-08T08:29:33.500Z,5.70
2023-04-08T08:32:00.837Z,4.40
2023-04-08T08:34:27.842Z,6.80
2023-04-08T08:36:55.444Z,4.80
2023-04-08T08:39:22.556Z,6.20
2023-04-08T08:41:51.182Z,5.30
2023-04-08T08:44:18.232Z,3.40
2023-04-08T08:46:45.370Z,5.10
2023-04-08T08:49:12.640Z,6.50
2023-04-08T08:51:45.075Z,6.60
2023-04-08T08:54:13.062Z,5.80
2023-04-08T08:56:40.172Z,5.40
2023-04-08T08:59:07.982Z,9.90
2023-04-08T09:01:38.364Z,4.40
2023-04-08T09:04:10.279Z,4.80
2023-04-08T09:06:39.183Z,3.90
2023-04-08T09:09:09.697Z,4.50
2023-04-08T09:11:43.957Z,5.70
2023-04-08T09:14:21.670Z,5.20
2023-04-08T09:16:49.289Z,6.30
2023-04-08T09:19:19.358Z,3.90
2023-04-08T09:22:03.649Z,3.70
2023-04-08T09:24:31.387Z,4.30
2023-04-08T09:27:06.833Z,7.30
2023-04-08T09:29:36.446Z,7.70
2023-04-08T09:32:05.660Z,7.60
2023-04-08T09:34:33.784Z,7.10
2023-04-08T09:37:01.459Z,3.10
2023-04-08T09:39:30.388Z,5.70
2023-04-08T09:41:58.576Z,3.60
2023-04-08T09:44:26.127Z,7.90
2023-04-08T09:46:59.962Z,6.70
2023-04-08T09:49:27.708Z,6.40
2023-04-08T09:52:14.082Z,4.60
2023-04-08T09:54:51.754Z,4.60
2023-04-08T09:57:41.491Z,6.10
2023-04-08T10:00:14.992Z,6.00
2023-04-08T10:02:59.283Z,8.20
2023-04-08T10:05:26.793Z,8.00
2023-04-08T10:07:55.796Z,6.60
2023-04-08T10:10:23.466Z,3.80
2023-04-08T10:12:51.852Z,7.40
2023-04-08T10:15:30.110Z,4.10
2023-04-08T10:18:06.493Z,5.20
2023-04-08T10:20:34.528Z,7.70
2023-04-08T10:23:03.105Z,7.50
2023-04-08T10:25:37.504Z,3.50
2023-04-08T10:28:10.315Z,3.10
2023-04-08T10:30:37.877Z,3.40
2023-04-08T10:33:34.326Z,6.50
2023-04-08T10:36:14.726Z,3.70
2023-04-08T10:38:42.109Z,3.90
2023-04-08T10:41:10.517Z,3.80
2023-04-08T10:43:37.770Z,4.20
2023-04-08T10:46:10.262Z,4.10
2023-04-08T10:48:37.553Z,4.50
2023-04-08T10:51:06.607Z,4.50
2023-04-08T10:53:37.334Z,8.20
2023-04-08T10:56:17.314Z,5.70
2023-04-08T10:58:49.349Z,4.60
2023-04-08T11:01:19.385Z,6.30
2023-04-08T11:03:47.279Z,9.50
2023-04-08T11:06:15.248Z,5.40
2023-04-08T11:08:44.092Z,5.10
2023-04-08T11:11:11.747Z,2.40
2023-04-08T11:13:52.942Z,5.20
2023-04-08T11:16:22.015Z,3.20
2023-04-08T11:19:12.625Z,3.60
2023-04-08T11:21:46.412Z,4.90
2023-04-08T11:24:16.205Z,6.00
2023-04-08T11:26:47.605Z,7.50
2023-04-08T11:29:15.392Z,3.30
2023-04-08T11:31:42.891Z,3.40
2023-04-08T11:34:11.828Z,3.50
2023-04-08T11:36:42.019Z,2.20
2023-04-08T11:39:09.418Z,1.70
2023-04-08T11:41:41.229Z,5.20
2023-04-08T11:44:08.149Z,6.60
2023-04-08T11:46:37.280Z,3.50
2023-04-08T11:49:06.063Z,7.80
2023-04-08T11:51:54.770Z,4.70
2023-04-08T11:54:32.316Z,6.20
2023-04-08T11:56:59.873Z,4.10
2023-04-08T11:59:29.761Z,3.60
2023-04-08T12:01:57.222Z,4.60
2023-04-08T12:04:24.421Z,4.70
2023-04-08T12:06:53.172Z,3.10
2023-04-08T12:09:20.163Z,4.60
2023-04-08T12:11:50.209Z,3.70
2023-04-08T12:14:23.812Z,4.00
2023-04-08T12:16:52.142Z,2.70
2023-04-08T12:19:23.698Z,2.60
2023-04-08T12:21:55.382Z,7.20
2023-04-08T12:24:23.172Z,4.80
2023-04-08T12:26:59.561Z,3.70
2023-04-08T12:29:30.635Z,3.10
2023-04-08T12:31:58.240Z,4.10
2023-04-08T12:34:28.216Z,7.70
2023-04-08T12:36:58.296Z,4.50
2023-04-08T12:39:26.395Z,3.90
2023-04-08T12:41:53.907Z,7.10
2023-04-08T12:44:21.105Z,4.70
2023-04-08T12:46:48.839Z,4.00
2023-04-08T12:49:15.845Z,3.30
2023-04-08T12:51:46.738Z,5.20
2023-04-08T12:54:14.350Z,6.20
2023-04-08T12:56:42.778Z,4.70
2023-04-08T12:59:11.214Z,4.70
2023-04-08T13:01:38.724Z,4.10
2023-04-08T13:04:06.151Z,4.20
2023-04-08T13:06:33.540Z,5.40
2023-04-08T13:09:00.821Z,7.10
2023-04-08T13:11:29.548Z,3.00
2023-04-08T13:13:56.739Z,4.00
2023-04-08T13:16:24.187Z,5.20
2023-04-08T13:18:52.426Z,6.50
2023-04-08T13:21:19.759Z,4.50
2023-04-08T13:23:46.654Z,2.10
2023-04-08T13:26:13.836Z,4.90
2023-04-08T13:28:55.801Z,3.40
2023-04-08T13:31:26.223Z,1.90
2023-04-08T13:33:55.231Z,3.00
2023-04-08T13:36:24.513Z,2.60
2023-04-08T13:38:51.876Z,4.70
2023-04-08T13:41:20.576Z,2.90
2023-04-08T13:43:48.162Z,2.80
2023-04-08T13:46:15.256Z,1.50
2023-04-08T13:48:44.164Z,3.50
2023-04-08T13:51:58.055Z,1.90
2023-04-08T13:54:32.962Z,5.60
2023-04-08T13:57:02.773Z,4.90
2023-04-08T13:59:31.668Z,4.40
2023-04-08T14:02:02.386Z,1.80
2023-04-08T14:04:31.809Z,1.90
2023-04-08T14:07:01.138Z,3.30
2023-04-08T14:09:29.681Z,2.10
2023-04-08T14:11:59.461Z,4.40
2023-04-08T14:14:28.043Z,3.00
2023-04-08T14:17:00.952Z,2.70
2023-04-08T14:19:29.547Z,5.00
2023-04-08T14:22:03.780Z,3.00
2023-04-08T14:24:32.734Z,2.00
2023-04-08T14:27:01.142Z,1.30
2023-04-08T14:29:30.635Z,3.10
2023-04-08T14:31:59.039Z,1.10
2023-04-08T14:34:27.537Z,2.10
2023-04-08T14:36:56.247Z,3.90
2023-04-08T14:39:25.519Z,4.50
2023-04-08T14:41:57.587Z,3.40
2023-04-08T14:44:26.058Z,3.30
2023-04-08T14:46:54.417Z,2.50
2023-04-08T14:49:22.932Z,2.70
2023-04-08T14:51:53.208Z,2.60
2023-04-08T14:54:21.858Z,4.20
2023-04-08T14:56:50.551Z,2.30
2023-04-08T14:59:19.144Z,3.30
2023-04-08T15:01:48.023Z,3.80
2023-04-08T15:04:16.629Z,2.90
2023-04-08T15:06:46.042Z,2.50
2023-04-08T15:09:14.387Z,2.20
2023-04-08T15:11:42.778Z,2.80
2023-04-08T15:14:15.768Z,2.10
2023-04-08T15:16:44.197Z,4.60
2023-04-08T15:19:12.659Z,2.80
2023-04-08T15:21:42.169Z,3.80
2023-04-08T15:24:10.601Z,2.20
2023-04-08T15:26:38.904Z,2.40
2023-04-08T15:29:07.381Z,3.00
2023-04-08T15:31:36.171Z,3.00
2023-04-08T15:34:04.871Z,3.10
2023-04-08T15:36:36.114Z,4.10
2023-04-08T15:39:04.465Z,4.80
2023-04-08T15:41:32.923Z,7.10
2023-04-08T15:44:02.050Z,4.50
2023-04-08T15:46:30.701Z,4.30
2023-04-08T15:49:00.224Z,6.30
2023-04-08T15:51:29.857Z,2.70
2023-04-08T15:53:59.058Z,3.80
2023-04-08T15:56:29.771Z,2.20
2023-04-08T15:59:01.469Z,2.60
2023-04-08T16:01:30.136Z,4.60
2023-04-08T16:04:01.282Z,3.90
2023-04-08T16:06:30.064Z,4.20
2023-04-08T16:08:58.347Z,2.50
2023-04-08T16:11:27.866Z,4.80
2023-04-08T16:13:56.158Z,3.40
2023-04-08T16:16:24.974Z,3.20
2023-04-08T16:18:55.838Z,2.90
2023-04-08T16:21:24.396Z,1.60
2023-04-08T16:23:53.309Z,4.40
2023-04-08T16:26:22.580Z,4.50
2023-04-08T16:28:52.049Z,4.80
2023-04-08T16:31:20.897Z,3.00
2023-04-08T16:33:49.859Z,3.90
2023-04-08T16:36:20.386Z,5.10
2023-04-08T16:38:48.761Z,5.50
2023-04-08T16:41:17.140Z,3.30
2023-04-08T16:43:45.385Z,4.90
2023-04-08T16:46:16.266Z,3.30
2023-04-08T16:48:45.096Z,3.00
2023-04-08T16:51:13.681Z,5.00
2023-04-08T16:53:42.738Z,5.30
2023-04-08T16:56:16.623Z,5.30
2023-04-08T16:58:46.099Z,6.30
2023-04-08T17:01:18.788Z,7.70
2023-04-08T17:03:48.815Z,6.30
2023-04-08T17:06:17.976Z,4.70
2023-04-08T17:08:49.369Z,5.60
2023-04-08T17:11:18.582Z,5.70
2023-04-08T17:13:47.143Z,4.00
2023-04-08T17:16:17.567Z,6.20
2023-04-08T17:18:46.983Z,4.90
2023-04-08T17:21:15.821Z,7.30
2023-04-08T17:23:52.534Z,7.70
2023-04-08T17:26:26.523Z,4.80
2023-04-08T17:28:55.017Z,5.50
2023-04-08T17:31:24.024Z,8.50
2023-04-08T17:33:53.135Z,8.60
2023-04-08T17:36:21.452Z,8.70
2023-04-08T17:38:51.532Z,6.20
2023-04-08T17:41:38.371Z,6.90
2023-04-08T17:44:11.950Z,9.80
2023-04-08T17:46:41.659Z,12.80
2023-04-08T17:49:14.432Z,7.10
2023-04-08T17:51:43.237Z,6.20
2023-04-08T17:54:11.875Z,9.00
2023-04-08T17:56:41.824Z,7.60
2023-04-08T17:59:11.367Z,8.70
2023-04-08T18:01:41.470Z,9.60
2023-04-08T18:04:12.886Z,9.20
2023-04-08T18:06:42.114Z,6.90
2023-04-08T18:09:13.138Z,6.40
2023-04-08T18:11:42.072Z,7.00
2023-04-08T18:14:10.531Z,6.50
2023-04-08T18:16:44.837Z,8.80
2023-04-08T18:19:16.083Z,7.00
2023-04-08T18:21:44.717Z,7.20
2023-04-08T18:24:13.840Z,6.60
2023-04-08T18:26:43.871Z,6.90
2023-04-08T18:29:12.632Z,9.60
2023-04-08T18:31:41.009Z,7.00
2023-04-08T18:34:09.363Z,8.40
2023-04-08T18:36:38.335Z,8.00
2023-04-08T18:39:06.866Z,10.00
2023-04-08T18:41:37.506Z,8.20
2023-04-08T18:44:06.419Z,9.50
2023-04-08T18:46:35.756Z,9.80
2023-04-08T18:49:04.719Z,12.30
2023-04-08T18:51:33.697Z,9.50
2023-04-08T18:54:02.150Z,10.20
2023-04-08T18:56:30.743Z,7.70
2023-04-08T18:59:00.162Z,7.30
2023-04-08T19:01:31.387Z,10.80
2023-04-08T19:04:00.148Z,7.70
2023-04-08T19:06:28.767Z,10.20
2023-04-08T19:08:57.035Z,9.00
2023-04-08T19:11:29.014Z,12.20
2023-04-08T19:13:57.899Z,10.00
2023-04-08T19:16:33.865Z,9.20
2023-04-08T19:19:03.754Z,10.40
2023-04-08T19:21:32.949Z,13.50
2023-04-08T19:24:01.334Z,10.40
2023-04-08T19:26:29.948Z,11.00
2023-04-08T19:28:58.340Z,12.50
2023-04-08T19:31:27.537Z,12.40
2023-04-08T19:33:56.049Z,13.90
2023-04-08T19:36:24.535Z,10.70
2023-04-08T19:38:52.967Z,12.70
2023-04-08T19:41:21.705Z,11.70
2023-04-08T19:43:50.784Z,10.10
2023-04-08T19:46:20.070Z,12.10
2023-04-08T19:48:49.769Z,12.00
2023-04-08T19:51:20.458Z,14.20
2023-04-08T19:53:51.327Z,9.90
2023-04-08T19:56:20.113Z,12.00
2023-04-08T19:58:48.721Z,10.90
2023-04-08T20:01:24.121Z,15.60
2023-04-08T20:03:53.920Z,11.10
2023-04-08T20:06:23.291Z,12.20
2023-04-08T20:08:53.396Z,14.90
2023-04-08T20:11:22.609Z,12.60
2023-04-08T20:13:51.709Z,14.10
2023-04-08T20:16:20.227Z,11.10
2023-04-08T20:18:49.314Z,13.00
2023-04-08T20:21:26.916Z,12.60
2023-04-08T20:23:55.858Z,11.80
2023-04-08T20:26:24.210Z,15.40
2023-04-08T20:28:56.331Z,14.30
2023-04-08T20:31:26.940Z,13.20
2023-04-08T20:33:59.340Z,13.80
2023-04-08T20:36:31.101Z,12.60
2023-04-08T20:39:00.276Z,12.80
2023-04-08T20:41:28.742Z,10.20
2023-04-08T20:43:57.167Z,13.50
2023-04-08T20:46:29.970Z,12.90
2023-04-08T20:48:58.519Z,12.80
2023-04-08T20:51:27.481Z,15.00
2023-04-08T20:53:56.267Z,12.00
2023-04-08T20:56:26.656Z,10.40
2023-04-08T20:59:01.374Z,12.60
2023-04-08T21:01:30.173Z,10.70
2023-04-08T21:03:58.601Z,11.30
2023-04-08T21:06:28.057Z,14.40
2023-04-08T21:08:58.735Z,11.40
2023-04-08T21:11:28.841Z,13.10
2023-04-08T21:13:57.976Z,11.80
2023-04-08T21:16:29.246Z,11.50
2023-04-08T21:19:01.495Z,13.90
2023-04-08T21:21:32.360Z,14.90
2023-04-08T21:24:00.861Z,12.00
2023-04-08T21:26:29.854Z,12.70
2023-04-08T21:28:58.543Z,14.80
2023-04-08T21:31:27.567Z,12.90
2023-04-08T21:33:58.706Z,15.10
2023-04-08T21:36:28.159Z,15.50
2023-04-08T21:38:57.643Z,14.00
2023-04-08T21:41:28.997Z,14.40
2023-04-08T21:43:59.429Z,15.70
2023-04-08T21:46:28.008Z,16.10
2023-04-08T21:48:56.555Z,13.30
2023-04-08T21:51:25.098Z,14.50
2023-04-08T21:53:53.813Z,14.20
2023-04-08T21:56:22.529Z,14.80
2023-04-08T21:58:51.505Z,15.60
2023-04-08T22:01:20.803Z,13.10
2023-04-08T22:03:52.537Z,12.60
2023-04-08T22:06:31.678Z,15.30
2023-04-08T22:09:01.188Z,14.40
2023-04-08T22:11:30.968Z,14.30
2023-04-08T22:13:59.579Z,15.70
2023-04-08T22:16:28.444Z,14.40
2023-04-08T22:18:57.320Z,16.50
2023-04-08T22:21:30.565Z,12.50
2023-04-08T22:23:59.225Z,12.30
2023-04-08T22:26:28.195Z,13.80
2023-04-08T22:29:00.579Z,14.60
2023-04-08T22:31:30.491Z,11.10
2023-04-08T22:34:00.392Z,14.30
2023-04-08T22:36:28.990Z,13.60
2023-04-08T22:38:58.016Z,12.30
2023-04-08T22:41:26.698Z,12.30
2023-04-08T22:43:55.171Z,11.80
2023-04-08T22:46:24.757Z,13.50
2023-04-08T22:48:53.857Z,12.50
2023-04-08T22:51:22.764Z,14.00
2023-04-08T22:53:51.194Z,11.90
2023-04-08T22:56:19.493Z,11.70
2023-04-08T22:58:50.802Z,14.30
2023-04-08T23:01:22.552Z,16.80
2023-04-08T23:03:52.271Z,15.70
2023-04-08T23:06:20.547Z,14.60
2023-04-08T23:08:51.616Z,12.00
2023-04-08T23:11:20.221Z,11.80
2023-04-08T23:18:43.378Z,14.00
2023-04-08T23:21:20.557Z,14.60
2023-04-08T23:23:49.680Z,12.80
2023-04-08T23:26:21.464Z,13.70
2023-04-08T23:28:55.277Z,12.10
2023-04-08T23:31:24.038Z,14.30
2023-04-08T23:33:53.478Z,12.80
2023-04-08T23:36:23.446Z,13.10
2023-04-08T23:38:51.855Z,13.50
2023-04-08T23:41:20.796Z,12.10
2023-04-08T23:43:55.367Z,10.30
2023-04-08T23:46:23.752Z,12.20
2023-04-08T23:48:57.938Z,9.10
2023-04-08T23:51:27.998Z,12.60
2023-04-08T23:53:56.802Z,11.20
2023-04-08T23:56:26.105Z,12.40
2023-04-08T23:58:54.939Z,12.40
